createdAt,value
2018-09-10T00:01:09.752Z,7.23
2018-09-10T00:03:38.252Z,6.80
2018-09-10T00:06:07.424Z,6.70
2018-09-10T00:08:35.944Z,8.30
2018-09-10T00:11:04.732Z,7.23
2018-09-10T00:13:33.279Z,6.83
2018-09-10T00:16:02.101Z,9.03
2018-09-10T00:18:30.680Z,7.77
2018-09-10T00:20:59.299Z,7.10
2018-09-10T00:23:27.874Z,8.63
2018-09-10T00:25:56.522Z,6.57
2018-09-10T00:28:24.990Z,6.53
2018-09-10T00:30:53.746Z,8.90
2018-09-10T00:33:22.336Z,6.63
2018-09-10T00:35:51.348Z,6.67
2018-09-10T00:38:20.066Z,7.60
2018-09-10T00:40:48.737Z,7.43
2018-09-10T00:43:17.600Z,7.10
2018-09-10T00:45:46.263Z,7.27
2018-09-10T00:48:14.748Z,7.40
2018-09-10T00:50:44.223Z,9.13
2018-09-10T00:53:12.829Z,5.73
2018-09-10T00:55:41.405Z,6.17
2018-09-10T00:58:10.000Z,5.50
2018-09-10T01:00:38.927Z,6.90
2018-09-10T01:03:07.477Z,6.03
2018-09-10T01:05:35.957Z,5.47
2018-09-10T01:08:04.475Z,6.13
2018-09-10T01:10:32.967Z,6.77
2018-09-10T01:13:01.505Z,6.80
2018-09-10T01:15:30.026Z,6.13
2018-09-10T01:17:58.551Z,9.20
2018-09-10T01:20:27.073Z,7.13
2018-09-10T01:22:55.579Z,8.03
2018-09-10T01:25:24.067Z,8.80
2018-09-10T01:27:52.786Z,8.13
2018-09-10T01:30:21.290Z,7.63
2018-09-10T01:32:49.780Z,10.87
2018-09-10T01:35:18.279Z,10.50
2018-09-10T01:37:47.124Z,6.43
2018-09-10T01:40:15.741Z,8.13
2018-09-10T01:42:44.259Z,9.50
2018-09-10T01:45:12.739Z,8.27
2018-09-10T01:47:41.327Z,6.93
2018-09-10T01:50:10.057Z,7.60
2018-09-10T01:52:38.537Z,7.93
2018-09-10T01:55:07.084Z,7.83
2018-09-10T01:57:35.656Z,7.37
2018-09-10T02:00:04.486Z,8.63
2018-09-10T02:02:33.037Z,8.80
2018-09-10T02:05:01.581Z,7.43
2018-09-10T02:07:30.136Z,8.37
2018-09-10T02:09:58.613Z,6.47
2018-09-10T02:12:27.119Z,7.87
2018-09-10T02:14:56.615Z,9.73
2018-09-10T02:17:25.773Z,8.33
2018-09-10T02:19:54.531Z,8.73
2018-09-10T02:22:23.095Z,8.10
2018-09-10T02:24:51.720Z,7.33
2018-09-10T02:27:20.275Z,6.40
2018-09-10T02:29:48.699Z,7.10
2018-09-10T02:32:17.268Z,7.93
2018-09-10T02:34:45.787Z,6.07
2018-09-10T02:37:14.422Z,5.97
2018-09-10T02:39:43.356Z,7.20
2018-09-10T02:42:11.859Z,6.33
2018-09-10T02:44:40.417Z,7.90
2018-09-10T02:47:08.904Z,8.70
2018-09-10T02:49:37.418Z,7.70
2018-09-10T02:52:05.927Z,7.13
2018-09-10T02:54:34.517Z,7.67
2018-09-10T02:57:03.416Z,8.43
2018-09-10T02:59:31.950Z,7.57
2018-09-10T03:02:00.539Z,7.90
2018-09-10T03:04:29.155Z,6.90
2018-09-10T03:06:57.695Z,8.63
2018-09-10T03:09:26.185Z,8.80
2018-09-10T03:11:54.699Z,7.07
2018-09-10T03:14:23.238Z,7.33
2018-09-10T03:16:51.732Z,10.87
2018-09-10T03:19:20.247Z,10.00
2018-09-10T03:21:48.769Z,7.23
2018-09-10T03:24:17.441Z,8.87
2018-09-10T03:26:46.528Z,9.07
2018-09-10T03:29:15.012Z,6.90
2018-09-10T03:31:43.595Z,6.77
2018-09-10T03:34:12.188Z,9.47
2018-09-10T03:36:40.713Z,10.13
2018-09-10T03:39:10.551Z,8.03
2018-09-10T03:41:39.083Z,6.70
2018-09-10T03:44:07.625Z,9.20
2018-09-10T03:46:36.222Z,12.80
2018-09-10T03:49:04.825Z,8.37
2018-09-10T03:51:33.315Z,9.50
2018-09-10T03:54:02.126Z,9.53
2018-09-10T03:56:30.967Z,11.20
2018-09-10T03:58:59.491Z,8.53
2018-09-10T04:01:28.050Z,10.90
2018-09-10T04:03:56.661Z,9.03
2018-09-10T04:06:25.207Z,9.13
2018-09-10T04:08:53.686Z,9.83
2018-09-10T04:11:22.566Z,9.67
2018-09-10T04:13:51.051Z,9.53
2018-09-10T04:16:19.815Z,12.77
2018-09-10T04:18:48.668Z,11.87
2018-09-10T04:21:17.193Z,11.27
2018-09-10T04:23:45.741Z,10.23
2018-09-10T04:26:14.342Z,10.13
2018-09-10T04:28:42.832Z,9.37
2018-09-10T04:31:11.525Z,12.03
2018-09-10T04:33:40.059Z,11.17
2018-09-10T04:36:08.620Z,15.43
2018-09-10T04:38:37.142Z,10.90
2018-09-10T04:41:06.001Z,12.63
2018-09-10T04:43:34.525Z,14.33
2018-09-10T04:46:03.153Z,13.47
2018-09-10T04:48:31.769Z,10.53
2018-09-10T04:51:00.269Z,11.90
2018-09-10T04:53:28.793Z,12.70
2018-09-10T04:55:57.261Z,14.80
2018-09-10T04:58:25.725Z,13.83
2018-09-10T05:00:54.246Z,15.30
2018-09-10T05:03:22.869Z,13.13
2018-09-10T05:05:51.415Z,16.57
2018-09-10T05:08:19.905Z,18.27
2018-09-10T05:10:48.402Z,14.53
2018-09-10T05:13:16.938Z,15.20
2018-09-10T05:15:45.481Z,16.93
2018-09-10T05:18:13.995Z,14.83
2018-09-10T05:20:42.730Z,15.47
2018-09-10T05:23:11.364Z,16.30
2018-09-10T05:25:39.897Z,15.07
2018-09-10T05:28:08.452Z,16.67
2018-09-10T05:30:36.892Z,15.17
2018-09-10T05:33:05.499Z,14.63
2018-09-10T05:35:33.960Z,17.07
2018-09-10T05:38:02.502Z,18.33
2018-09-10T05:40:31.100Z,15.00
2018-09-10T05:42:59.599Z,18.83
2018-09-10T05:45:28.178Z,15.60
2018-09-10T05:47:56.723Z,14.83
2018-09-10T05:50:25.231Z,16.53
2018-09-10T05:52:53.789Z,19.93
2018-09-10T05:55:22.559Z,23.97
2018-09-10T05:57:51.022Z,18.77
2018-09-10T06:00:19.671Z,21.90
2018-09-10T06:02:48.183Z,23.10
2018-09-10T06:05:16.649Z,18.90
2018-09-10T06:07:45.157Z,17.30
2018-09-10T06:10:13.665Z,15.83
2018-09-10T06:12:42.178Z,20.13
2018-09-10T06:15:10.799Z,21.77
2018-09-10T06:17:39.412Z,15.67
2018-09-10T06:20:07.899Z,22.17
2018-09-10T06:22:36.474Z,19.43
2018-09-10T06:25:05.184Z,21.27
2018-09-10T06:27:33.696Z,18.80
2018-09-10T06:30:02.252Z,18.80
2018-09-10T06:32:30.810Z,18.87
2018-09-10T06:34:59.342Z,21.63
2018-09-10T06:37:27.968Z,21.30
2018-09-10T06:39:56.498Z,22.03
2018-09-10T06:42:24.975Z,25.20
2018-09-10T06:44:53.521Z,18.27
2018-09-10T06:47:22.093Z,18.27
2018-09-10T06:49:50.684Z,20.23
2018-09-10T06:52:19.168Z,19.60
2018-09-10T06:54:47.742Z,19.07
2018-09-10T06:57:16.308Z,21.50
2018-09-10T06:59:44.798Z,22.53
2018-09-10T07:02:13.410Z,22.67
2018-09-10T07:04:42.006Z,21.10
2018-09-10T07:07:10.497Z,22.87
2018-09-10T07:09:41.063Z,23.20
2018-09-10T07:12:09.603Z,23.50
2018-09-10T07:14:38.353Z,22.23
2018-09-10T07:17:07.241Z,19.30
2018-09-10T07:19:35.746Z,24.37
2018-09-10T07:22:04.320Z,18.17
2018-09-10T07:24:32.861Z,22.07
2018-09-10T07:27:01.531Z,17.40
2018-09-10T07:29:30.060Z,21.63
2018-09-10T07:31:58.552Z,22.60
2018-09-10T07:34:27.093Z,24.53
2018-09-10T07:36:55.613Z,18.93
2018-09-10T07:39:24.197Z,20.87
2018-09-10T07:41:52.747Z,19.93
2018-09-10T07:44:21.406Z,20.67
2018-09-10T07:46:49.971Z,18.57
2018-09-10T07:49:19.446Z,26.37
2018-09-10T07:51:47.993Z,17.87
2018-09-10T07:54:16.468Z,20.43
2018-09-10T07:56:44.981Z,18.27
2018-09-10T07:59:13.579Z,18.07
2018-09-10T08:01:42.082Z,19.37
2018-09-10T08:04:10.738Z,21.57
2018-09-10T08:06:39.207Z,22.03
2018-09-10T08:09:09.281Z,18.80
2018-09-10T08:11:37.756Z,18.00
2018-09-10T08:14:06.626Z,19.93
2018-09-10T08:16:35.160Z,17.90
2018-09-10T08:19:04.881Z,22.17
2018-09-10T08:21:33.420Z,24.63
2018-09-10T08:24:02.019Z,18.30
2018-09-10T08:26:30.557Z,17.10
2018-09-10T08:28:59.081Z,16.43
2018-09-10T08:31:27.944Z,24.27
2018-09-10T08:33:56.904Z,23.03
2018-09-10T08:36:25.533Z,25.87
2018-09-10T08:38:54.148Z,24.13
2018-09-10T08:41:22.770Z,15.83
2018-09-10T08:43:51.354Z,17.73
2018-09-10T08:46:19.882Z,19.47
2018-09-10T08:48:48.420Z,18.87
2018-09-10T08:51:15.912Z,20.23
2018-09-10T08:53:44.709Z,19.80
2018-09-10T08:56:13.702Z,16.93
2018-09-10T08:58:42.054Z,21.37
2018-09-10T09:01:10.686Z,19.93
2018-09-10T09:03:39.318Z,18.53
2018-09-10T09:06:08.078Z,13.70
2018-09-10T09:08:36.652Z,13.30
2018-09-10T09:11:05.172Z,16.67
2018-09-10T09:13:33.687Z,16.33
2018-09-10T09:16:02.307Z,15.50
2018-09-10T09:18:30.887Z,14.57
2018-09-10T09:20:59.379Z,14.57
2018-09-10T09:23:28.242Z,13.57
2018-09-10T09:25:56.717Z,16.20
2018-09-10T09:28:25.197Z,17.60
2018-09-10T09:30:53.711Z,14.03
2018-09-10T09:33:22.237Z,14.30
2018-09-10T09:35:56.168Z,16.77
2018-09-10T09:38:29.914Z,14.10
2018-09-10T09:41:03.646Z,14.83
2018-09-10T09:43:37.377Z,16.13
2018-09-10T09:46:09.873Z,12.27
2018-09-10T09:48:38.391Z,11.30
2018-09-10T09:51:07.017Z,12.10
2018-09-10T09:53:36.117Z,12.27
2018-09-10T09:56:04.725Z,11.17
2018-09-10T09:58:33.349Z,10.93
2018-09-10T10:01:06.933Z,11.13
2018-09-10T10:03:40.769Z,12.77
2018-09-10T10:06:09.294Z,11.67
2018-09-10T10:08:39.885Z,11.30
2018-09-10T10:11:08.396Z,12.17
2018-09-10T10:13:37.114Z,12.17
2018-09-10T10:16:05.742Z,11.97
2018-09-10T10:18:34.232Z,10.27
2018-09-10T10:21:02.712Z,12.50
2018-09-10T10:23:31.320Z,13.37
2018-09-10T10:25:59.832Z,15.60
2018-09-10T10:28:28.349Z,12.77
2018-09-10T10:30:56.877Z,8.87
2018-09-10T10:33:25.361Z,12.97
2018-09-10T10:35:54.066Z,10.73
2018-09-10T10:38:22.568Z,10.93
2018-09-10T10:40:51.191Z,9.80
2018-09-10T10:43:19.965Z,11.97
2018-09-10T10:45:48.494Z,10.17
2018-09-10T10:48:17.031Z,11.27
2018-09-10T10:50:45.508Z,12.30
2018-09-10T10:53:14.131Z,10.57
2018-09-10T10:55:42.649Z,11.07
2018-09-10T10:58:11.466Z,11.37
2018-09-10T11:00:39.963Z,10.07
2018-09-10T11:03:08.496Z,13.47
2018-09-10T11:05:37.021Z,9.13
2018-09-10T11:08:05.561Z,8.50
2018-09-10T11:10:34.194Z,5.70
2018-09-10T11:13:02.803Z,6.90
2018-09-10T11:15:31.336Z,6.83
2018-09-10T11:17:59.853Z,9.97
2018-09-10T11:20:28.328Z,8.30
2018-09-10T11:22:56.891Z,9.20
2018-09-10T11:25:25.433Z,8.03
2018-09-10T11:27:53.925Z,8.73
2018-09-10T11:30:22.459Z,8.07
2018-09-10T11:32:51.254Z,8.70
2018-09-10T11:35:19.961Z,7.73
2018-09-10T11:37:48.523Z,7.80
2018-09-10T11:40:17.136Z,4.83
2018-09-10T11:42:46.093Z,8.70
2018-09-10T11:45:14.616Z,5.70
2018-09-10T11:47:43.092Z,7.00
2018-09-10T11:50:11.855Z,5.97
2018-09-10T11:52:40.341Z,5.23
2018-09-10T11:55:09.209Z,6.10
2018-09-10T11:57:37.707Z,5.00
2018-09-10T12:00:06.284Z,3.83
2018-09-10T12:02:34.824Z,4.83
2018-09-10T12:05:03.317Z,6.87
2018-09-10T12:07:31.885Z,4.33
2018-09-10T12:10:00.490Z,12.03
2018-09-10T12:12:29.024Z,6.83
2018-09-10T12:14:57.586Z,6.13
2018-09-10T12:17:26.455Z,6.07
2018-09-10T12:19:55.036Z,6.90
2018-09-10T12:22:23.576Z,5.53
2018-09-10T12:24:52.110Z,3.93
2018-09-10T12:27:20.652Z,7.70
2018-09-10T12:29:49.280Z,6.73
2018-09-10T12:32:17.794Z,6.23
2018-09-10T12:34:46.426Z,5.13
2018-09-10T12:37:15.286Z,5.10
2018-09-10T12:39:43.855Z,4.07
2018-09-10T12:42:12.317Z,3.80
2018-09-10T12:44:40.827Z,4.83
2018-09-10T12:47:09.352Z,7.13
2018-09-10T12:49:37.849Z,3.70
2018-09-10T12:52:06.368Z,3.30
2018-09-10T12:54:34.916Z,4.37
2018-09-10T12:57:03.479Z,4.23
2018-09-10T12:59:31.968Z,4.47
2018-09-10T13:02:00.476Z,5.03
2018-09-10T13:04:30.746Z,4.80
2018-09-10T13:06:59.270Z,4.60
2018-09-10T13:09:27.741Z,4.60
2018-09-10T13:11:56.546Z,2.83
2018-09-10T13:14:25.077Z,5.10
2018-09-10T13:16:53.561Z,3.90
2018-09-10T13:19:22.099Z,4.43
2018-09-10T13:21:50.618Z,4.60
2018-09-10T13:24:19.128Z,3.27
2018-09-10T13:26:47.629Z,3.03
2018-09-10T13:29:16.265Z,3.00
2018-09-10T13:31:44.784Z,4.87
2018-09-10T13:34:13.281Z,4.57
2018-09-10T13:36:41.856Z,4.33
2018-09-10T13:39:10.311Z,6.57
2018-09-10T13:41:39.308Z,4.40
2018-09-10T13:47:14.826Z,3.93
2018-09-10T13:49:43.468Z,4.27
2018-09-10T13:52:12.140Z,3.13
2018-09-10T13:54:41.075Z,3.13
2018-09-10T13:57:09.758Z,2.80
2018-09-10T13:59:39.236Z,5.03
2018-09-10T14:02:07.986Z,4.47
2018-09-10T14:04:36.647Z,6.70
2018-09-10T14:07:05.278Z,4.57
2018-09-10T14:09:33.950Z,3.87
2018-09-10T14:12:02.663Z,4.90
2018-09-10T14:14:31.319Z,3.87
2018-09-10T14:16:59.968Z,7.00
2018-09-10T14:19:28.618Z,7.60
2018-09-10T14:21:57.612Z,6.70
2018-09-10T14:24:26.263Z,5.10
2018-09-10T14:26:54.871Z,5.40
2018-09-10T14:29:23.554Z,6.00
2018-09-10T14:31:52.339Z,3.93
2018-09-10T14:34:20.961Z,5.47
2018-09-10T14:36:49.590Z,4.43
2018-09-10T14:39:18.248Z,5.83
2018-09-10T14:41:47.006Z,5.13
2018-09-10T14:44:15.767Z,6.17
2018-09-10T14:46:44.443Z,6.43
2018-09-10T14:49:13.054Z,5.60
2018-09-10T14:51:41.697Z,6.63
2018-09-10T14:54:10.296Z,6.10
2018-09-10T14:56:38.966Z,4.67
2018-09-10T14:59:07.606Z,7.23
2018-09-10T15:01:36.276Z,4.00
2018-09-10T15:04:04.995Z,6.47
2018-09-10T15:06:33.856Z,6.97
2018-09-10T15:09:02.596Z,8.37
2018-09-10T15:11:31.387Z,9.03
2018-09-10T15:14:00.036Z,7.00
2018-09-10T15:16:28.677Z,8.53
2018-09-10T15:18:57.508Z,5.63
2018-09-10T15:21:26.032Z,6.47
2018-09-10T15:23:54.723Z,6.33
2018-09-10T15:26:23.493Z,9.73
2018-09-10T15:28:52.124Z,7.07
2018-09-10T15:31:20.966Z,7.83
2018-09-10T15:33:49.608Z,8.73
2018-09-10T15:36:18.250Z,5.17
2018-09-10T15:38:46.932Z,5.77
2018-09-10T15:41:15.573Z,6.37
2018-09-10T15:43:44.224Z,7.23
2018-09-10T15:46:12.860Z,8.13
2018-09-10T15:48:41.517Z,5.33
2018-09-10T15:51:10.245Z,7.73
2018-09-10T15:53:38.915Z,7.33
2018-09-10T15:56:07.685Z,7.27
2018-09-10T15:58:36.313Z,6.03
2018-09-10T16:01:05.100Z,7.30
2018-09-10T16:03:33.872Z,5.30
2018-09-10T16:06:02.574Z,9.77
2018-09-10T16:08:31.224Z,16.60
2018-09-10T16:11:00.201Z,9.53
2018-09-10T16:13:28.823Z,6.93
2018-09-10T16:15:57.548Z,19.17
2018-09-10T16:18:26.260Z,39.53
2018-09-10T16:20:55.066Z,10.33
2018-09-10T16:23:23.705Z,10.17
2018-09-10T16:25:52.378Z,8.87
2018-09-10T16:28:21.042Z,8.27
2018-09-10T16:30:50.081Z,7.47
2018-09-10T16:33:18.749Z,8.47
2018-09-10T16:35:47.381Z,8.87
2018-09-10T16:38:16.243Z,6.97
2018-09-10T16:40:44.885Z,9.10
2018-09-10T16:43:13.886Z,6.03
2018-09-10T16:45:42.954Z,8.73
2018-09-10T16:48:11.568Z,8.90
2018-09-10T16:50:40.397Z,7.63
2018-09-10T16:53:09.046Z,10.33
2018-09-10T16:55:37.686Z,11.43
2018-09-10T16:58:06.400Z,6.87
2018-09-10T17:00:35.051Z,7.63
2018-09-10T17:03:03.798Z,10.37
2018-09-10T17:05:32.537Z,5.60
2018-09-10T17:08:01.236Z,8.40
2018-09-10T17:10:30.697Z,13.80
2018-09-10T17:12:59.355Z,5.60
2018-09-10T17:15:28.371Z,8.07
2018-09-10T17:17:56.985Z,6.60
2018-09-10T17:20:25.634Z,10.03
2018-09-10T17:22:54.364Z,8.27
2018-09-10T17:25:23.010Z,8.50
2018-09-10T17:27:51.731Z,6.43
2018-09-10T17:30:20.617Z,7.60
2018-09-10T17:32:49.245Z,7.80
2018-09-10T17:35:17.920Z,7.40
2018-09-10T17:37:46.548Z,7.50
2018-09-10T17:40:15.226Z,6.73
2018-09-10T17:42:43.877Z,8.13
2018-09-10T17:45:12.519Z,8.97
2018-09-10T17:47:41.369Z,8.03
2018-09-10T17:50:10.092Z,9.27
2018-09-10T17:52:38.747Z,8.37
2018-09-10T17:55:07.388Z,9.37
2018-09-10T17:57:36.066Z,6.50
2018-09-10T18:00:04.844Z,12.37
2018-09-10T18:02:33.518Z,10.03
2018-09-10T18:05:02.562Z,8.10
2018-09-10T18:07:31.441Z,8.93
2018-09-10T18:10:00.101Z,8.60
2018-09-10T18:12:28.733Z,6.87
2018-09-10T18:14:57.839Z,7.43
2018-09-10T18:17:26.544Z,9.77
2018-09-10T18:19:55.313Z,7.43
2018-09-10T18:22:24.028Z,10.27
2018-09-10T18:24:52.717Z,8.30
2018-09-10T18:27:21.376Z,8.57
2018-09-10T18:29:50.231Z,9.50
2018-09-10T18:32:19.226Z,9.93
2018-09-10T18:34:47.903Z,7.00
2018-09-10T18:37:16.656Z,10.17
2018-09-10T18:39:45.307Z,10.30
2018-09-10T18:42:13.976Z,90.77
2018-09-10T18:44:42.671Z,136.50
2018-09-10T18:47:11.344Z,109.57
2018-09-10T18:49:40.155Z,117.33
2018-09-10T18:52:09.014Z,54.33
2018-09-10T18:54:37.697Z,57.47
2018-09-10T18:57:07.195Z,27.53
2018-09-10T18:59:35.933Z,24.67
2018-09-10T19:02:04.703Z,22.93
2018-09-10T19:04:33.916Z,20.67
2018-09-10T19:07:02.618Z,12.17
2018-09-10T19:09:31.277Z,13.43
2018-09-10T19:11:59.963Z,12.23
2018-09-10T19:14:28.641Z,10.80
2018-09-10T19:16:57.254Z,10.83
2018-09-10T19:19:25.920Z,9.70
2018-09-10T19:21:54.550Z,11.23
2018-09-10T19:24:23.314Z,13.07
2018-09-10T19:26:52.018Z,8.50
2018-09-10T19:29:20.845Z,9.10
2018-09-10T19:31:49.904Z,9.03
2018-09-10T19:34:18.540Z,10.80
2018-09-10T19:36:47.549Z,8.47
2018-09-10T19:39:16.186Z,8.80
2018-09-10T19:41:44.836Z,8.90
2018-09-10T19:44:13.545Z,6.37
2018-09-10T19:46:42.240Z,9.40
2018-09-10T19:49:10.903Z,9.63
2018-09-10T19:51:39.549Z,9.00
2018-09-10T19:54:08.703Z,8.70
2018-09-10T19:56:37.392Z,9.53
2018-09-10T19:59:06.382Z,6.87
2018-09-10T20:01:35.072Z,10.23
2018-09-10T20:04:04.022Z,7.87
2018-09-10T20:06:32.851Z,9.73
2018-09-10T20:09:01.502Z,10.30
2018-09-10T20:11:30.493Z,11.20
2018-09-10T20:13:59.125Z,9.83
2018-09-10T20:16:27.885Z,7.67
2018-09-10T20:18:56.524Z,7.90
2018-09-10T20:21:25.168Z,11.93
2018-09-10T20:26:33.557Z,9.50
2018-09-10T20:29:02.210Z,7.83
2018-09-10T20:31:30.908Z,12.67
2018-09-10T20:34:06.680Z,9.53
2018-09-10T20:36:36.685Z,6.77
2018-09-10T20:39:08.328Z,7.63
2018-09-10T20:41:36.935Z,9.73
2018-09-10T20:44:05.661Z,11.97
2018-09-10T20:46:34.391Z,10.70
2018-09-10T20:49:03.444Z,8.87
2018-09-10T20:51:47.133Z,10.50
2018-09-10T20:54:15.787Z,11.00
2018-09-10T20:56:44.426Z,10.30
2018-09-10T20:59:13.151Z,14.00
2018-09-10T21:01:41.895Z,12.47
2018-09-10T21:04:10.605Z,10.33
2018-09-10T21:06:39.259Z,10.40
2018-09-10T21:09:09.661Z,8.80
2018-09-10T21:11:38.512Z,11.50
2018-09-10T21:14:07.202Z,8.17
2018-09-10T21:16:36.002Z,8.97
2018-09-10T21:19:04.629Z,10.67
2018-09-10T21:21:33.227Z,8.40
2018-09-10T21:24:01.905Z,13.50
2018-09-10T21:26:30.957Z,8.13
2018-09-10T21:28:59.709Z,8.17
2018-09-10T21:31:28.355Z,9.37
2018-09-10T21:33:57.380Z,9.33
2018-09-10T21:36:26.091Z,11.23
2018-09-10T21:38:54.754Z,12.33
2018-09-10T21:41:23.390Z,9.93
2018-09-10T21:43:52.189Z,8.90
2018-09-10T21:46:20.818Z,10.77
2018-09-10T21:48:49.448Z,11.10
2018-09-10T21:51:18.136Z,11.77
2018-09-10T21:53:46.800Z,8.50
2018-09-10T21:56:15.378Z,10.23
2018-09-10T21:58:44.055Z,10.60
2018-09-10T22:01:12.711Z,10.80
2018-09-10T22:03:41.365Z,10.67
2018-09-10T22:06:10.000Z,11.27
2018-09-10T22:08:38.696Z,11.00
2018-09-10T22:11:07.348Z,10.27
2018-09-10T22:13:35.974Z,9.53
2018-09-10T22:16:05.204Z,9.50
2018-09-10T22:18:33.810Z,11.83
2018-09-10T22:21:02.462Z,12.53
2018-09-10T22:23:31.098Z,12.33
2018-09-10T22:25:59.810Z,9.63
2018-09-10T22:28:28.505Z,12.90
2018-09-10T22:30:57.090Z,9.83
2018-09-10T22:33:25.827Z,10.93
2018-09-10T22:35:54.391Z,7.83
2018-09-10T22:38:23.017Z,8.40
2018-09-10T22:40:51.683Z,8.23
2018-09-10T22:43:20.406Z,14.03
2018-09-10T22:45:49.078Z,11.27
2018-09-10T22:48:17.769Z,8.90
2018-09-10T22:50:46.416Z,6.87
2018-09-10T22:53:15.032Z,10.53
2018-09-10T22:55:43.687Z,17.00
2018-09-10T22:58:12.337Z,5.23
2018-09-10T23:00:40.947Z,9.10
2018-09-10T23:03:09.810Z,10.83
2018-09-10T23:05:38.427Z,14.03
2018-09-10T23:08:07.263Z,10.60
2018-09-10T23:10:35.878Z,9.67
2018-09-10T23:13:04.653Z,10.63
2018-09-10T23:15:34.401Z,12.13
2018-09-10T23:18:03.494Z,8.97
2018-09-10T23:20:32.111Z,9.33
2018-09-10T23:23:00.717Z,9.70
2018-09-10T23:25:29.478Z,11.33
2018-09-10T23:27:58.101Z,9.27
2018-09-10T23:30:27.221Z,11.53
2018-09-10T23:32:55.991Z,9.80
2018-09-10T23:35:24.854Z,14.53
2018-09-10T23:37:53.624Z,14.83
2018-09-10T23:40:22.360Z,11.80
2018-09-10T23:42:50.994Z,10.63
2018-09-10T23:45:19.807Z,11.57
2018-09-10T23:47:48.458Z,10.37
2018-09-10T23:50:17.491Z,11.97
2018-09-10T23:52:46.603Z,8.53
2018-09-10T23:55:15.198Z,10.57
2018-09-10T23:57:43.828Z,12.93
